Time;durP1;ratioP1;P1;durP2;ratioP2;P2;SDS_P1;SDS_P2;PMS_P1;PMS_P2;Temp;Humidity;BMP_temperature;BMP_pressure;BME280_temperature;BME280_humidity;BME280_pressure;Samples;Min_cycle;Max_cycle;Signal;HPM_P1;HPM_P2
2022/05/01 00:01:01;;;;;;;16.48;9.10;;;11.70;99.90;;;;;;5091135;28;20076;-75
2022/05/01 00:03:35;;;;;;;17.80;8.63;;;11.70;99.90;;;;;;5091063;28;20074;-75
2022/05/01 00:06:07;;;;;;;16.48;9.45;;;11.70;99.90;;;;;;5092821;28;20036;-75
2022/05/01 00:08:33;;;;;;;17.85;8.25;;;11.70;99.90;;;;;;5096261;28;20020;-75
2022/05/01 00:11:00;;;;;;;15.95;9.48;;;11.60;99.90;;;;;;5094841;28;20028;-75
2022/05/01 00:13:26;;;;;;;17.23;8.80;;;11.70;99.90;;;;;;5094859;28;20040;-75
2022/05/01 00:15:52;;;;;;;17.80;9.57;;;11.70;99.90;;;;;;5095878;28;20032;-75
2022/05/01 00:18:18;;;;;;;15.00;8.93;;;11.80;99.90;;;;;;5094779;28;20115;-74
2022/05/01 00:20:44;;;;;;;17.77;9.35;;;11.80;99.90;;;;;;5095479;28;20103;-75
2022/05/01 00:23:10;;;;;;;15.88;8.45;;;11.80;99.90;;;;;;5095867;28;20033;-75
2022/05/01 00:25:41;;;;;;;15.07;9.02;;;11.70;99.90;;;;;;5093945;28;20445;-75
2022/05/01 00:28:11;;;;;;;15.07;9.13;;;11.70;99.90;;;;;;5094688;28;20028;-75
2022/05/01 00:30:37;;;;;;;14.00;9.43;;;11.70;99.90;;;;;;5095331;28;20453;-75
2022/05/01 00:38:31;;;;;;;17.67;9.50;;;11.70;99.90;;;;;;5095458;28;20031;-75
2022/05/01 00:40:57;;;;;;;16.27;9.18;;;11.70;99.90;;;;;;5095171;28;20040;-75
2022/05/01 00:43:23;;;;;;;15.52;8.93;;;11.60;99.90;;;;;;5095661;28;20032;-74
2022/05/01 00:45:49;;;;;;;17.10;9.95;;;11.60;99.90;;;;;;5094947;28;20031;-75
2022/05/01 00:48:15;;;;;;;15.35;9.20;;;11.50;99.90;;;;;;5094157;28;20024;-75
2022/05/01 00:50:41;;;;;;;14.52;8.50;;;11.50;99.90;;;;;;5093514;28;20385;-75
2022/05/01 00:53:08;;;;;;;16.30;9.57;;;11.50;99.90;;;;;;5094231;28;20023;-75
2022/05/01 00:55:35;;;;;;;14.05;8.60;;;11.50;99.90;;;;;;5095256;28;20028;-75
2022/05/01 00:58:03;;;;;;;19.85;9.63;;;11.50;99.90;;;;;;5093240;28;20024;-75
2022/05/01 01:00:29;;;;;;;13.85;8.95;;;11.40;99.90;;;;;;5095233;28;20031;-75
2022/05/01 01:02:54;;;;;;;18.92;9.30;;;11.40;99.90;;;;;;5093241;28;20028;-75
2022/05/01 01:05:20;;;;;;;17.88;9.30;;;11.50;99.90;;;;;;5093766;28;20035;-75
2022/05/01 01:07:46;;;;;;;17.92;9.45;;;11.50;99.90;;;;;;5093302;28;20024;-75
2022/05/01 01:10:12;;;;;;;15.30;8.60;;;11.50;99.90;;;;;;5093777;28;20028;-75
2022/05/01 01:12:56;;;;;;;18.80;9.70;;;11.50;99.90;;;;;;5094496;28;20038;-76
2022/05/01 01:15:23;;;;;;;13.68;8.85;;;11.50;99.90;;;;;;5093873;28;20358;-74
2022/05/01 01:17:54;;;;;;;15.80;9.18;;;11.60;99.90;;;;;;5092345;28;20028;-75
2022/05/01 01:20:21;;;;;;;15.85;10.07;;;11.60;99.90;;;;;;5093669;28;20031;-75
2022/05/01 01:22:49;;;;;;;15.60;9.43;;;11.60;99.90;;;;;;5092582;28;20480;-75
2022/05/01 01:25:20;;;;;;;18.02;10.10;;;11.60;99.90;;;;;;5093358;28;20385;-75
2022/05/01 01:27:47;;;;;;;20.40;9.40;;;11.60;99.90;;;;;;5092995;28;20024;-75
2022/05/01 01:32:59;;;;;;;18.13;10.13;;;11.60;99.90;;;;;;5094066;28;20047;-75
2022/05/01 01:35:26;;;;;;;15.55;9.48;;;11.50;99.90;;;;;;5094579;28;20057;-75
2022/05/01 01:37:56;;;;;;;18.83;9.85;;;11.50;99.90;;;;;;5093909;28;20027;-75
2022/05/01 01:40:37;;;;;;;16.23;9.23;;;11.50;99.90;;;;;;5092868;28;20028;-75
2022/05/01 01:43:05;;;;;;;18.10;9.57;;;11.50;99.90;;;;;;5092592;28;20028;-75
2022/05/01 01:45:31;;;;;;;14.98;9.00;;;11.50;99.90;;;;;;5094419;28;20094;-75
2022/05/01 01:48:11;;;;;;;16.08;10.15;;;11.40;99.90;;;;;;5093783;28;20099;-75
2022/05/01 01:50:37;;;;;;;15.63;9.18;;;11.40;99.90;;;;;;5094357;28;20035;-75
2022/05/01 01:53:03;;;;;;;16.90;8.90;;;11.50;99.90;;;;;;5092240;28;20024;-75
2022/05/01 01:55:33;;;;;;;17.35;9.88;;;11.50;99.90;;;;;;5092785;28;20073;-75
2022/05/01 01:57:59;;;;;;;17.85;9.70;;;11.50;99.90;;;;;;5092001;28;20032;-75
2022/05/01 02:00:25;;;;;;;18.80;9.80;;;11.40;99.90;;;;;;5094132;28;20055;-75
2022/05/01 02:03:03;;;;;;;14.20;8.57;;;11.30;99.90;;;;;;5092071;28;20055;-75
2022/05/01 02:05:29;;;;;;;16.83;9.43;;;11.30;99.90;;;;;;5092824;28;20030;-75
2022/05/01 02:07:55;;;;;;;16.45;9.13;;;11.30;99.90;;;;;;5092076;28;20028;-75
2022/05/01 02:10:21;;;;;;;14.90;8.90;;;11.40;99.90;;;;;;5092698;28;20036;-75
2022/05/01 02:12:47;;;;;;;15.40;8.95;;;11.40;99.90;;;;;;5092000;28;20067;-75
2022/05/01 02:15:13;;;;;;;15.65;8.65;;;11.40;99.90;;;;;;5092672;28;20048;-75
2022/05/01 02:17:39;;;;;;;14.70;9.10;;;11.50;99.90;;;;;;5093726;28;20103;-74
2022/05/01 02:20:06;;;;;;;15.98;10.02;;;11.50;99.90;;;;;;5091908;28;20020;-75
2022/05/01 02:22:31;;;;;;;20.00;9.55;;;11.40;99.90;;;;;;5092341;28;20024;-74
2022/05/01 02:24:57;;;;;;;18.63;9.43;;;11.40;99.90;;;;;;5092864;28;20416;-75
2022/05/01 02:27:22;;;;;;;15.80;9.48;;;11.40;99.90;;;;;;5092358;28;20078;-75
2022/05/01 02:29:48;;;;;;;16.67;10.35;;;11.40;99.90;;;;;;5090766;28;20421;-75
2022/05/01 02:32:14;;;;;;;18.60;9.85;;;11.40;99.90;;;;;;5092526;28;20024;-75
2022/05/01 02:34:40;;;;;;;17.35;9.82;;;11.40;99.90;;;;;;5092081;28;20483;-75
2022/05/01 02:37:06;;;;;;;18.40;9.80;;;11.40;99.90;;;;;;5092770;28;20081;-75
2022/05/01 02:39:35;;;;;;;16.50;9.63;;;11.40;99.90;;;;;;5091967;28;20169;-75
2022/05/01 02:42:01;;;;;;;17.08;10.10;;;11.40;99.90;;;;;;5091493;28;20036;-75
2022/05/01 02:44:26;;;;;;;16.27;9.20;;;11.40;99.90;;;;;;5093119;28;20098;-75
2022/05/01 02:46:52;;;;;;;15.50;9.40;;;11.40;99.90;;;;;;5092397;28;20028;-75
2022/05/01 02:49:20;;;;;;;19.95;10.18;;;11.50;99.90;;;;;;5093182;28;20477;-75
2022/05/01 02:51:45;;;;;;;17.95;9.77;;;11.50;99.90;;;;;;5091429;28;20024;-75
2022/05/01 02:54:11;;;;;;;15.38;9.45;;;11.50;99.90;;;;;;5091924;28;20081;-75
2022/05/01 02:56:37;;;;;;;16.90;9.23;;;11.40;99.90;;;;;;5091822;28;20122;-75
2022/05/01 02:59:02;;;;;;;16.58;9.43;;;11.40;99.90;;;;;;5090966;28;20087;-75
2022/05/01 03:01:29;;;;;;;16.63;9.73;;;11.30;99.90;;;;;;5091699;28;20431;-75
2022/05/01 03:03:55;;;;;;;15.63;8.95;;;11.40;99.90;;;;;;5091180;28;20062;-75
2022/05/01 03:06:21;;;;;;;15.32;8.70;;;11.40;99.90;;;;;;5091404;28;20157;-75
2022/05/01 03:08:47;;;;;;;15.88;8.73;;;11.40;99.90;;;;;;5091083;28;20028;-74
2022/05/01 03:11:12;;;;;;;13.73;8.32;;;11.30;99.90;;;;;;5092427;28;20363;-74
2022/05/01 03:13:38;;;;;;;15.82;9.10;;;11.40;99.90;;;;;;5091631;28;20082;-74
2022/05/01 03:16:04;;;;;;;15.55;8.65;;;11.30;99.90;;;;;;5092192;28;20440;-74
2022/05/01 03:23:58;;;;;;;15.50;8.48;;;11.30;99.90;;;;;;5092184;28;20039;-74
2022/05/01 03:26:25;;;;;;;13.63;7.97;;;11.20;99.90;;;;;;5091491;28;20024;-74
2022/05/01 03:28:50;;;;;;;15.32;8.52;;;11.20;99.90;;;;;;5091024;28;20412;-74
2022/05/01 03:31:17;;;;;;;11.85;7.75;;;11.30;99.90;;;;;;5091350;28;20024;-74
2022/05/01 03:33:44;;;;;;;16.70;8.55;;;11.30;99.90;;;;;;5092630;28;20039;-74
2022/05/01 03:36:11;;;;;;;15.93;8.35;;;11.30;99.90;;;;;;5090821;28;20376;-74
2022/05/01 03:38:38;;;;;;;15.85;8.27;;;11.30;99.90;;;;;;5092677;28;20024;-74
2022/05/01 03:41:05;;;;;;;14.35;8.38;;;11.30;99.90;;;;;;5093507;28;20063;-73
2022/05/01 03:43:32;;;;;;;18.20;9.57;;;11.20;99.90;;;;;;5096725;28;20040;-74
2022/05/01 03:45:58;;;;;;;15.02;8.80;;;11.20;99.90;;;;;;5096057;28;20054;-73
2022/05/01 03:48:24;;;;;;;14.45;8.70;;;11.20;99.90;;;;;;5095466;28;20024;-75
2022/05/01 03:50:51;;;;;;;14.80;9.18;;;11.10;99.90;;;;;;5095731;28;20027;-75
2022/05/01 03:53:17;;;;;;;15.13;8.45;;;11.10;99.90;;;;;;5096464;28;20063;-74
2022/05/01 03:55:43;;;;;;;13.30;8.00;;;11.20;99.90;;;;;;5096511;28;20421;-74
2022/05/01 03:58:08;;;;;;;16.20;8.70;;;11.20;99.90;;;;;;5094427;28;20028;-74
2022/05/01 04:00:35;;;;;;;20.10;9.18;;;11.20;99.90;;;;;;5096252;28;20028;-74
2022/05/01 04:03:00;;;;;;;15.93;9.30;;;11.20;99.90;;;;;;5094436;28;20031;-74
2022/05/01 04:05:26;;;;;;;15.43;8.77;;;11.20;99.90;;;;;;5095074;28;20469;-74
2022/05/01 04:07:52;;;;;;;15.63;8.40;;;11.20;99.90;;;;;;5095445;28;20016;-74
2022/05/01 04:10:17;;;;;;;16.42;7.88;;;11.20;99.90;;;;;;5096294;28;20089;-74
2022/05/01 04:12:44;;;;;;;17.92;8.75;;;11.20;99.90;;;;;;5096189;28;20032;-74
2022/05/01 04:15:12;;;;;;;13.55;8.15;;;11.20;99.90;;;;;;5095535;28;20028;-74
2022/05/01 04:17:40;;;;;;;16.10;8.27;;;11.30;99.90;;;;;;5096029;28;20024;-74
2022/05/01 04:20:08;;;;;;;14.38;7.97;;;11.20;99.90;;;;;;5094115;28;20381;-74
2022/05/01 04:22:45;;;;;;;13.13;8.70;;;11.20;99.90;;;;;;5094671;28;20021;-73
2022/05/01 04:25:19;;;;;;;15.68;8.57;;;11.30;99.90;;;;;;5095305;28;20024;-74
2022/05/01 04:27:47;;;;;;;14.02;8.52;;;11.30;99.90;;;;;;5094760;28;20028;-74
2022/05/01 04:30:13;;;;;;;13.90;8.50;;;11.30;99.90;;;;;;5095221;28;20023;-74
2022/05/01 04:32:55;;;;;;;15.73;8.45;;;11.20;99.90;;;;;;5094533;28;20031;-74
2022/05/01 04:35:29;;;;;;;13.40;7.68;;;11.30;99.90;;;;;;5094519;28;20377;-74
2022/05/01 04:37:59;;;;;;;16.27;8.57;;;11.30;99.90;;;;;;5095105;28;20040;-74
2022/05/01 04:40:28;;;;;;;13.73;8.20;;;11.30;99.90;;;;;;5094159;28;20035;-74
2022/05/01 04:43:10;;;;;;;13.10;8.30;;;11.20;99.90;;;;;;5095090;28;20082;-74
2022/05/01 04:45:37;;;;;;;16.30;8.95;;;11.10;99.90;;;;;;5095655;28;20107;-74
2022/05/01 04:48:05;;;;;;;14.35;8.95;;;11.10;99.90;;;;;;5094900;28;20061;-74
2022/05/01 04:50:31;;;;;;;12.82;8.27;;;11.10;99.90;;;;;;5094126;28;20119;-74
2022/05/01 04:53:00;;;;;;;16.48;8.48;;;11.10;99.90;;;;;;5093673;28;20020;-74
2022/05/01 04:55:26;;;;;;;14.27;8.23;;;11.10;99.90;;;;;;5094180;28;20032;-74
2022/05/01 04:57:52;;;;;;;13.07;7.85;;;11.10;99.90;;;;;;5093542;28;20051;-74
2022/05/01 05:00:19;;;;;;;20.88;10.73;;;11.20;99.90;;;;;;5093752;28;20512;-74
2022/05/01 05:02:47;;;;;;;21.48;10.27;;;11.10;99.90;;;;;;5095247;28;20016;-74
2022/05/01 05:05:13;;;;;;;20.75;10.30;;;11.10;99.90;;;;;;5093184;28;20028;-74
2022/05/01 05:07:40;;;;;;;20.10;10.57;;;11.20;99.90;;;;;;5093816;28;20032;-74
2022/05/01 05:10:07;;;;;;;17.85;10.38;;;11.20;99.90;;;;;;5093001;28;20031;-74
2022/05/01 05:12:34;;;;;;;20.35;10.88;;;11.20;99.90;;;;;;5093739;28;20085;-74
2022/05/01 05:15:00;;;;;;;18.83;10.20;;;11.20;99.90;;;;;;5093117;28;20035;-74
2022/05/01 05:17:27;;;;;;;22.63;11.82;;;11.20;99.90;;;;;;5093694;28;20377;-73
2022/05/01 05:19:54;;;;;;;21.00;11.57;;;11.20;99.90;;;;;;5093117;28;20028;-75
2022/05/01 05:22:20;;;;;;;16.58;9.40;;;11.20;99.90;;;;;;5093500;28;20527;-74
2022/05/01 05:24:46;;;;;;;13.55;8.75;;;11.20;99.90;;;;;;5093425;28;20024;-74
2022/05/01 05:27:12;;;;;;;15.02;8.65;;;11.20;99.90;;;;;;5093900;28;20032;-74
2022/05/01 05:29:38;;;;;;;15.23;8.60;;;11.20;99.90;;;;;;5093385;28;20115;-74
2022/05/01 05:32:05;;;;;;;15.75;8.65;;;11.30;99.90;;;;;;5092854;28;20024;-74
2022/05/01 05:34:31;;;;;;;14.73;9.15;;;11.30;99.90;;;;;;5093369;28;20036;-73
2022/05/01 05:36:57;;;;;;;15.35;9.45;;;11.30;99.90;;;;;;5093952;28;20379;-74
2022/05/01 05:39:23;;;;;;;13.35;8.43;;;11.30;99.90;;;;;;5094493;28;20058;-74
2022/05/01 05:41:49;;;;;;;14.32;8.82;;;11.30;99.90;;;;;;5093142;28;20031;-74
2022/05/01 05:44:15;;;;;;;13.68;8.57;;;11.40;99.90;;;;;;5092470;28;20028;-74
2022/05/01 05:46:41;;;;;;;16.30;9.90;;;11.40;99.90;;;;;;5093187;28;20084;-74
2022/05/01 05:49:06;;;;;;;13.55;7.95;;;11.50;99.90;;;;;;5092438;28;20469;-74
2022/05/01 05:51:32;;;;;;;14.23;7.95;;;11.50;99.90;;;;;;5092956;28;20020;-74
2022/05/01 05:53:57;;;;;;;14.23;8.10;;;11.60;99.90;;;;;;5093635;28;20036;-74
2022/05/01 05:56:24;;;;;;;14.45;7.80;;;11.60;99.90;;;;;;5094168;28;20111;-74
2022/05/01 05:58:50;;;;;;;13.07;8.93;;;11.60;99.90;;;;;;5092548;28;20131;-74
2022/05/01 06:01:16;;;;;;;12.75;8.05;;;11.60;99.90;;;;;;5092185;28;20413;-74
2022/05/01 06:03:42;;;;;;;15.25;8.70;;;11.70;99.90;;;;;;5092504;28;20032;-74
2022/05/01 06:06:08;;;;;;;17.30;8.48;;;11.60;99.90;;;;;;5092108;28;20036;-74
2022/05/01 06:08:38;;;;;;;16.25;9.23;;;11.70;99.90;;;;;;5093925;28;20035;-73
2022/05/01 06:11:03;;;;;;;14.35;8.93;;;11.70;99.90;;;;;;5092055;28;20059;-74
2022/05/01 06:13:29;;;;;;;13.18;8.57;;;11.70;99.90;;;;;;5093771;28;20067;-73
2022/05/01 06:15:55;;;;;;;13.30;8.35;;;11.80;99.90;;;;;;5092665;28;20069;-73
2022/05/01 06:18:21;;;;;;;16.65;8.75;;;11.80;99.90;;;;;;5092705;28;20117;-73
2022/05/01 06:20:47;;;;;;;14.10;8.10;;;11.80;99.90;;;;;;5092416;28;20024;-73
2022/05/01 06:23:13;;;;;;;15.13;8.70;;;11.90;99.90;;;;;;5091716;28;20035;-74
2022/05/01 06:25:43;;;;;;;12.65;8.88;;;11.90;99.90;;;;;;5092237;28;20027;-74
2022/05/01 06:28:09;;;;;;;16.77;8.80;;;12.00;99.90;;;;;;5091811;28;20028;-74
2022/05/01 06:30:34;;;;;;;14.95;8.65;;;12.10;99.90;;;;;;5093421;28;20028;-73
2022/05/01 06:33:00;;;;;;;13.30;8.50;;;12.10;99.90;;;;;;5093192;28;20100;-74
2022/05/01 06:35:31;;;;;;;12.82;8.73;;;12.00;99.90;;;;;;5092095;28;20032;-74
2022/05/01 06:37:58;;;;;;;14.95;8.60;;;12.00;99.90;;;;;;5091697;28;20032;-76
2022/05/01 06:40:24;;;;;;;14.80;8.90;;;12.00;99.90;;;;;;5093457;28;20069;-74
2022/05/01 06:42:50;;;;;;;14.05;8.55;;;12.00;99.90;;;;;;5092103;28;20032;-73
2022/05/01 06:45:15;;;;;;;15.15;8.10;;;12.00;99.90;;;;;;5092628;28;20056;-74
2022/05/01 06:47:41;;;;;;;13.40;8.40;;;12.10;99.90;;;;;;5091927;28;20070;-74
2022/05/01 06:50:07;;;;;;;15.30;8.68;;;12.10;99.90;;;;;;5092319;28;20026;-74
2022/05/01 06:52:32;;;;;;;14.52;9.02;;;12.10;99.90;;;;;;5093264;28;20027;-74
2022/05/01 06:54:59;;;;;;;12.20;8.25;;;12.10;99.90;;;;;;5092773;28;20346;-76
2022/05/01 06:57:26;;;;;;;13.10;7.63;;;12.20;99.90;;;;;;5091882;28;20385;-74
2022/05/01 06:59:51;;;;;;;12.15;7.63;;;12.30;99.90;;;;;;5091533;28;20114;-74
2022/05/01 07:02:17;;;;;;;12.57;8.02;;;12.30;99.90;;;;;;5092481;28;20067;-74
2022/05/01 07:04:43;;;;;;;12.43;8.10;;;12.40;99.90;;;;;;5091632;28;20085;-74
2022/05/01 07:07:09;;;;;;;17.02;9.05;;;12.50;99.90;;;;;;5090762;28;20028;-74
2022/05/01 07:09:34;;;;;;;16.10;9.25;;;12.50;99.90;;;;;;5091650;28;20032;-74
2022/05/01 07:12:00;;;;;;;15.00;8.75;;;12.60;99.90;;;;;;5090945;28;20034;-75
2022/05/01 07:14:26;;;;;;;22.42;11.13;;;12.60;99.90;;;;;;5091396;28;20062;-74
2022/05/01 07:16:51;;;;;;;16.23;9.30;;;12.60;99.90;;;;;;5090981;28;20115;-74
2022/05/01 07:19:17;;;;;;;14.55;8.75;;;12.60;99.90;;;;;;5090949;28;20028;-75
2022/05/01 07:21:43;;;;;;;14.98;8.65;;;12.60;99.90;;;;;;5090947;28;20028;-75
2022/05/01 07:24:08;;;;;;;14.77;8.20;;;12.70;99.90;;;;;;5090869;28;20157;-74
2022/05/01 07:26:34;;;;;;;12.27;8.20;;;12.70;99.90;;;;;;5091436;28;20032;-74
2022/05/01 07:29:00;;;;;;;15.13;8.38;;;12.80;99.90;;;;;;5090785;28;20028;-77
2022/05/01 07:31:27;;;;;;;14.10;8.52;;;12.80;99.90;;;;;;5091375;28;20454;-74
2022/05/01 07:33:52;;;;;;;16.60;8.65;;;12.90;99.90;;;;;;5092572;28;20028;-74
2022/05/01 07:36:21;;;;;;;16.48;8.88;;;12.90;99.90;;;;;;5090529;28;20450;-74
2022/05/01 07:38:48;;;;;;;17.40;9.00;;;13.00;99.90;;;;;;5092686;28;20028;-74
2022/05/01 07:41:18;;;;;;;16.55;8.48;;;13.00;99.90;;;;;;5090675;28;20035;-75
2022/05/01 07:43:47;;;;;;;12.80;8.00;;;13.00;99.90;;;;;;5092509;28;20038;-74
2022/05/01 07:46:13;;;;;;;15.23;8.75;;;13.00;99.90;;;;;;5092259;28;20028;-75
2022/05/01 07:48:39;;;;;;;17.00;9.00;;;13.00;99.90;;;;;;5091151;28;20024;-74
2022/05/01 07:51:05;;;;;;;15.07;8.60;;;13.10;99.90;;;;;;5090726;28;20082;-75
2022/05/01 07:53:33;;;;;;;12.73;8.18;;;13.10;99.90;;;;;;5092484;28;20081;-74
2022/05/01 07:55:58;;;;;;;15.25;9.18;;;13.00;99.90;;;;;;5092218;28;20028;-75
2022/05/01 07:58:24;;;;;;;15.02;8.38;;;13.00;99.90;;;;;;5091636;28;20056;-74
2022/05/01 08:00:50;;;;;;;13.40;8.52;;;12.90;99.90;;;;;;5091060;28;20499;-74
2022/05/01 08:06:00;;;;;;;15.30;8.88;;;12.90;99.90;;;;;;5092408;28;20164;-74
2022/05/01 08:08:26;;;;;;;15.10;8.93;;;12.80;99.90;;;;;;5090532;28;20477;-74
2022/05/01 08:10:52;;;;;;;13.57;8.95;;;12.90;99.90;;;;;;5090695;28;20124;-75
2022/05/01 08:13:18;;;;;;;14.13;9.02;;;12.90;99.90;;;;;;5090152;28;20118;-74
2022/05/01 08:15:43;;;;;;;13.95;9.63;;;12.90;99.90;;;;;;5092286;28;20020;-74
2022/05/01 08:21:09;;;;;;;20.20;11.48;;;12.90;99.90;;;;;;5092201;28;20074;-74
2022/05/01 08:23:36;;;;;;;22.20;11.60;;;13.00;99.90;;;;;;5091135;28;20024;-74
2022/05/01 08:26:06;;;;;;;19.83;12.60;;;13.20;99.90;;;;;;5092258;28;20733;-74
2022/05/01 08:28:33;;;;;;;26.23;15.88;;;13.30;99.90;;;;;;5095585;28;20393;-74
2022/05/01 08:31:00;;;;;;;17.17;10.70;;;13.30;99.90;;;;;;5094427;28;20477;-74
2022/05/01 08:33:26;;;;;;;18.23;11.20;;;13.30;99.90;;;;;;5095215;28;20052;-74
2022/05/01 08:35:52;;;;;;;15.50;10.77;;;13.30;99.90;;;;;;5094116;28;20098;-74
2022/05/01 08:38:18;;;;;;;24.75;13.07;;;13.40;99.90;;;;;;5094960;28;20028;-74
2022/05/01 08:40:52;;;;;;;15.02;10.38;;;13.50;99.90;;;;;;5094367;28;20039;-74
2022/05/01 08:43:19;;;;;;;22.50;12.02;;;13.40;99.90;;;;;;5094975;28;20040;-74
2022/05/01 08:46:08;;;;;;;20.00;11.25;;;13.50;99.90;;;;;;5095617;28;20030;-74
2022/05/01 08:48:39;;;;;;;19.63;10.48;;;13.50;99.90;;;;;;5095691;28;20106;-75
2022/05/01 08:51:07;;;;;;;19.90;11.82;;;13.60;99.90;;;;;;5093711;28;20028;-75
2022/05/01 08:53:36;;;;;;;15.82;10.48;;;13.70;99.90;;;;;;5095369;28;20028;-74
2022/05/01 08:56:02;;;;;;;15.82;9.98;;;13.70;99.90;;;;;;5093994;28;20035;-75
2022/05/01 08:58:30;;;;;;;16.67;10.35;;;13.80;99.90;;;;;;5092963;28;20048;-74
2022/05/01 09:00:58;;;;;;;16.35;10.23;;;14.00;99.90;;;;;;5093873;28;20488;-73
2022/05/01 09:03:25;;;;;;;16.63;10.02;;;14.10;99.90;;;;;;5094493;28;20020;-74
2022/05/01 09:05:51;;;;;;;13.95;9.63;;;14.10;99.90;;;;;;5095260;28;20085;-74
2022/05/01 09:08:16;;;;;;;17.33;10.32;;;14.20;99.90;;;;;;5092925;28;20031;-75
2022/05/01 09:10:44;;;;;;;14.50;10.15;;;14.40;99.90;;;;;;5093789;28;20028;-74
2022/05/01 09:13:11;;;;;;;14.30;9.75;;;14.50;99.90;;;;;;5093215;28;20389;-75
2022/05/01 09:15:40;;;;;;;17.42;10.55;;;14.50;99.90;;;;;;5093538;28;20136;-74
2022/05/01 09:18:08;;;;;;;14.13;9.25;;;14.50;99.90;;;;;;5093519;28;20461;-74
2022/05/01 09:20:36;;;;;;;14.80;9.57;;;14.60;99.90;;;;;;5094778;28;20517;-74
2022/05/01 09:23:02;;;;;;;17.67;9.50;;;14.70;99.90;;;;;;5094727;28;20070;-75
2022/05/01 09:25:28;;;;;;;15.40;10.02;;;14.80;99.90;;;;;;5094109;28;20429;-74
2022/05/01 09:27:59;;;;;;;15.68;8.98;;;14.90;99.90;;;;;;5094695;28;20024;-74
2022/05/01 09:30:35;;;;;;;15.55;9.25;;;15.00;99.90;;;;;;5092841;28;20032;-75
2022/05/01 09:33:02;;;;;;;14.68;9.73;;;15.10;99.90;;;;;;5093257;28;20077;-74
2022/05/01 09:35:35;;;;;;;15.98;9.27;;;15.10;99.50;;;;;;5092815;28;20740;-75
2022/05/01 09:38:15;;;;;;;16.27;9.27;;;15.10;99.70;;;;;;5092631;28;20077;-75
2022/05/01 09:40:42;;;;;;;15.25;9.23;;;15.10;99.50;;;;;;5092973;28;20024;-75
2022/05/01 09:43:08;;;;;;;17.38;9.25;;;15.20;99.20;;;;;;5093954;28;20028;-77
2022/05/01 09:45:34;;;;;;;17.33;10.18;;;15.30;98.90;;;;;;5093105;28;20035;-75
2022/05/01 09:48:00;;;;;;;16.73;8.48;;;15.30;99.00;;;;;;5093227;28;20498;-74
2022/05/01 09:50:40;;;;;;;12.40;9.00;;;15.40;99.00;;;;;;5092406;28;20031;-74
2022/05/01 09:53:06;;;;;;;13.27;8.68;;;15.50;99.30;;;;;;5092958;28;20098;-75
2022/05/01 09:55:32;;;;;;;12.93;8.43;;;15.50;98.50;;;;;;5093525;28;20028;-74
2022/05/01 09:58:11;;;;;;;11.93;8.20;;;15.50;99.10;;;;;;5093871;28;20028;-75
2022/05/01 10:00:40;;;;;;;14.90;8.27;;;15.60;99.20;;;;;;5092981;28;20358;-74
2022/05/01 10:03:19;;;;;;;11.63;8.10;;;15.50;98.50;;;;;;5092647;28;20043;-74
2022/05/01 10:05:46;;;;;;;15.52;8.30;;;15.60;98.30;;;;;;5092737;28;20123;-74
2022/05/01 10:08:13;;;;;;;12.15;7.97;;;15.50;98.60;;;;;;5092170;28;20020;-75
2022/05/01 10:10:41;;;;;;;12.60;7.68;;;15.50;99.00;;;;;;5092609;28;20064;-75
2022/05/01 10:13:08;;;;;;;12.90;7.97;;;15.50;98.90;;;;;;5092690;28;20473;-74
2022/05/01 10:15:33;;;;;;;11.77;7.72;;;15.50;98.90;;;;;;5093199;28;20104;-75
2022/05/01 10:18:01;;;;;;;11.35;7.57;;;15.50;98.50;;;;;;5093774;28;20020;-74
2022/05/01 10:20:28;;;;;;;12.95;8.70;;;15.50;98.80;;;;;;5091852;28;20024;-74
2022/05/01 10:22:55;;;;;;;15.07;8.13;;;15.40;98.90;;;;;;5092445;28;20024;-74
2022/05/01 10:25:21;;;;;;;10.90;8.02;;;15.40;99.10;;;;;;5091671;28;20038;-75
2022/05/01 10:27:56;;;;;;;14.13;7.47;;;15.40;99.20;;;;;;5092293;28;20028;-75
2022/05/01 10:34:13;;;;;;;17.73;7.93;;;15.50;98.90;;;;;;5093467;28;20042;-75
2022/05/01 10:37:12;;;;;;;12.32;7.57;;;15.50;98.20;;;;;;5034176;28;20028;-75
2022/05/01 10:39:40;;;;;;;11.65;7.00;;;15.70;97.30;;;;;;5091748;28;20039;-75
2022/05/01 10:42:06;;;;;;;14.40;7.30;;;15.80;97.90;;;;;;5092046;28;20028;-75
2022/05/01 10:44:36;;;;;;;13.18;7.15;;;15.90;97.80;;;;;;5091397;28;20388;-75
2022/05/01 10:47:13;;;;;;;9.90;7.18;;;15.90;97.60;;;;;;5092063;28;20128;-75
2022/05/01 10:49:48;;;;;;;12.60;7.72;;;16.00;97.30;;;;;;5091186;28;20039;-74
2022/05/01 10:52:22;;;;;;;12.88;7.88;;;16.00;96.70;;;;;;5091243;28;20031;-75
2022/05/01 10:55:04;;;;;;;15.07;8.80;;;16.00;97.60;;;;;;5093167;28;20082;-74
2022/05/01 10:57:30;;;;;;;12.45;8.25;;;15.90;98.20;;;;;;5090986;28;20024;-75
2022/05/01 11:00:13;;;;;;;12.50;7.60;;;15.80;98.20;;;;;;5091528;28;20181;-75
2022/05/01 11:02:45;;;;;;;12.50;7.90;;;15.90;98.00;;;;;;5091446;28;20115;-74
2022/05/01 11:05:31;;;;;;;16.00;9.18;;;15.90;97.30;;;;;;5091846;28;20119;-75
2022/05/01 11:07:57;;;;;;;14.48;8.25;;;15.90;96.60;;;;;;5092858;28;20024;-74
2022/05/01 11:10:26;;;;;;;11.88;7.82;;;16.00;96.60;;;;;;5091077;28;20020;-75
2022/05/01 11:12:53;;;;;;;12.25;7.72;;;16.10;96.60;;;;;;5091541;28;20457;-74
2022/05/01 11:15:27;;;;;;;15.35;8.15;;;16.20;96.30;;;;;;5091047;28;20032;-75
2022/05/01 11:17:54;;;;;;;13.93;7.82;;;16.20;96.00;;;;;;5092863;28;20097;-75
2022/05/01 11:20:21;;;;;;;12.55;7.57;;;16.30;96.00;;;;;;5090932;28;20024;-75
2022/05/01 11:22:47;;;;;;;12.77;7.18;;;16.40;96.00;;;;;;5092771;28;20073;-74
2022/05/01 11:25:36;;;;;;;11.32;7.40;;;16.50;96.80;;;;;;5092739;28;20024;-75
2022/05/01 11:28:02;;;;;;;12.93;7.22;;;16.40;95.10;;;;;;5091639;28;20060;-75
2022/05/01 11:30:28;;;;;;;11.77;7.57;;;16.50;95.20;;;;;;5090901;28;20060;-75
2022/05/01 11:33:02;;;;;;;12.27;7.45;;;16.60;95.00;;;;;;5091397;28;20028;-75
2022/05/01 11:35:55;;;;;;;11.90;7.88;;;16.60;94.70;;;;;;5090873;28;20483;-75
2022/05/01 11:38:33;;;;;;;10.50;6.82;;;16.60;94.90;;;;;;5092131;28;20051;-75
2022/05/01 11:41:01;;;;;;;10.80;6.40;;;16.60;94.70;;;;;;5090899;28;20119;-74
2022/05/01 11:43:28;;;;;;;11.35;7.60;;;16.70;95.20;;;;;;5091906;28;20028;-74
2022/05/01 11:45:58;;;;;;;11.60;6.50;;;16.80;95.10;;;;;;5092558;28;20028;-75
2022/05/01 11:48:25;;;;;;;10.38;7.00;;;17.00;95.10;;;;;;5092002;28;20028;-75
2022/05/01 11:50:58;;;;;;;16.45;7.40;;;17.00;94.80;;;;;;5091469;28;20121;-75
2022/05/01 11:53:29;;;;;;;14.77;7.03;;;17.10;94.00;;;;;;5090782;28;20028;-75
2022/05/01 12:04:47;;;;;;;11.55;6.07;;;17.00;93.00;;;;;;5053712;28;20040;-75
2022/05/01 12:07:15;;;;;;;10.07;7.00;;;16.90;93.40;;;;;;5078123;28;20032;-74
2022/05/01 12:09:42;;;;;;;9.90;6.82;;;16.90;93.30;;;;;;5095690;28;20473;-74
2022/05/01 12:12:13;;;;;;;11.05;7.07;;;16.80;93.50;;;;;;5094858;28;20579;-74
2022/05/01 12:14:40;;;;;;;10.05;6.68;;;16.70;93.40;;;;;;5094171;28;20495;-75
2022/05/01 12:17:10;;;;;;;11.18;6.95;;;16.60;93.10;;;;;;5094678;28;20493;-75
2022/05/01 12:19:40;;;;;;;11.63;7.15;;;16.60;93.40;;;;;;5094225;28;20495;-75
2022/05/01 12:22:10;;;;;;;11.13;6.32;;;16.50;93.90;;;;;;5094637;28;20496;-74
2022/05/01 12:24:36;;;;;;;11.20;6.43;;;16.50;94.10;;;;;;5093690;28;20028;-75
2022/05/01 12:27:03;;;;;;;9.63;6.88;;;16.40;94.50;;;;;;5094599;28;20056;-75
2022/05/01 12:29:29;;;;;;;10.50;7.05;;;16.50;95.20;;;;;;5094057;28;20032;-75
2022/05/01 12:32:09;;;;;;;13.70;7.40;;;16.40;94.60;;;;;;5094577;28;20381;-74
2022/05/01 12:34:44;;;;;;;11.05;6.97;;;16.30;94.60;;;;;;5095248;28;20024;-75
2022/05/01 12:37:15;;;;;;;9.27;6.45;;;16.30;94.70;;;;;;5094417;28;20028;-74
2022/05/01 12:39:42;;;;;;;;;;;16.30;95.10;;;;;;5094113;28;20385;-75
2022/05/01 12:45:11;;;;;;;10.25;6.93;;;16.50;94.90;;;;;;5095208;28;20412;-75
2022/05/01 12:47:40;;;;;;;12.15;7.00;;;16.70;94.30;;;;;;5094955;28;20032;-74
2022/05/01 12:50:11;;;;;;;10.27;6.75;;;16.80;93.80;;;;;;5094145;28;20031;-74
2022/05/01 12:52:39;;;;;;;10.77;6.88;;;16.90;93.50;;;;;;5093628;28;20081;-75
2022/05/01 12:55:15;;;;;;;12.05;7.30;;;17.00;93.40;;;;;;5094083;28;20028;-75
2022/05/01 12:57:43;;;;;;;11.93;7.22;;;17.00;93.50;;;;;;5093549;28;20032;-75
2022/05/01 13:00:09;;;;;;;12.93;7.78;;;17.20;92.90;;;;;;5093457;28;20048;-74
2022/05/01 13:02:35;;;;;;;9.63;6.78;;;17.50;92.00;;;;;;5093334;28;20354;-75
2022/05/01 13:05:04;;;;;;;12.43;7.32;;;17.80;91.70;;;;;;5093884;28;20034;-74
2022/05/01 13:07:34;;;;;;;8.45;5.97;;;18.00;90.90;;;;;;5094570;28;20024;-74
2022/05/01 13:10:03;;;;;;;7.63;6.03;;;17.90;91.00;;;;;;5093541;28;20468;-74
2022/05/01 13:12:31;;;;;;;13.02;7.40;;;17.90;90.90;;;;;;5092876;28;20035;-74
2022/05/01 13:14:58;;;;;;;15.10;7.10;;;17.70;91.20;;;;;;5093030;28;20032;-74